Time;durP1;ratioP1;P1;durP2;ratioP2;P2;SDS_P1;SDS_P2;PMS_P1;PMS_P2;Temp;Humidity;BMP_temperature;BMP_pressure;BME280_temperature;BME280_humidity;BME280_pressure;Samples;Min_cycle;Max_cycle;Signal;HPM_P1;HPM_P2
2021/07/09 00:02:01;;;;;;;3.97;2.70;;;24.50;60.40;;;;;;5057494;28;20068;-73
2021/07/09 00:04:27;;;;;;;4.68;3.05;;;24.40;60.60;;;;;;5057098;28;20036;-73
2021/07/09 00:06:55;;;;;;;3.85;2.90;;;24.40;60.60;;;;;;5057399;28;20029;-72
2021/07/09 00:09:21;;;;;;;3.78;2.72;;;24.40;60.60;;;;;;5056691;28;20394;-72
2021/07/09 00:11:49;;;;;;;6.70;3.15;;;24.40;60.70;;;;;;5056748;28;20032;-72
2021/07/09 00:14:17;;;;;;;5.82;2.90;;;24.30;60.80;;;;;;5056937;28;20025;-73
2021/07/09 00:16:47;;;;;;;4.80;3.15;;;24.30;60.80;;;;;;5072659;28;20451;-73
2021/07/09 00:19:13;;;;;;;6.03;3.47;;;24.30;61.00;;;;;;5056889;28;20032;-73
2021/07/09 00:21:40;;;;;;;5.07;3.35;;;24.30;60.90;;;;;;5056706;28;20110;-72
2021/07/09 00:24:08;;;;;;;6.05;3.00;;;24.30;61.00;;;;;;5056508;28;20122;-73
2021/07/09 00:26:34;;;;;;;7.88;3.17;;;24.30;61.00;;;;;;5057158;28;20422;-72
2021/07/09 00:29:00;;;;;;;4.82;3.17;;;24.30;60.90;;;;;;5056634;28;20183;-72
2021/07/09 00:31:29;;;;;;;8.63;3.47;;;24.20;60.90;;;;;;5056566;28;20032;-72
2021/07/09 00:33:59;;;;;;;4.03;3.00;;;24.20;61.00;;;;;;5056460;28;20040;-72
2021/07/09 00:36:25;;;;;;;4.10;3.10;;;24.20;61.10;;;;;;5056676;28;20029;-72
2021/07/09 00:38:51;;;;;;;4.75;3.20;;;24.20;61.30;;;;;;5056631;28;20029;-72
2021/07/09 00:41:17;;;;;;;6.97;3.63;;;24.10;61.40;;;;;;5056234;28;20047;-72
2021/07/09 00:43:43;;;;;;;4.32;3.05;;;24.10;61.60;;;;;;5056199;28;20025;-72
2021/07/09 00:46:09;;;;;;;3.70;3.10;;;24.10;61.70;;;;;;5056135;28;20033;-73
2021/07/09 00:48:35;;;;;;;4.60;3.10;;;24.20;61.80;;;;;;5056388;28;20025;-72
2021/07/09 00:51:07;;;;;;;4.47;3.00;;;24.10;61.90;;;;;;5055532;28;20120;-72
2021/07/09 00:53:33;;;;;;;3.80;3.35;;;24.10;62.00;;;;;;5056739;28;20451;-72
2021/07/09 00:56:00;;;;;;;6.30;3.58;;;24.10;62.10;;;;;;5071378;28;20064;-72
2021/07/09 00:58:26;;;;;;;3.80;3.10;;;24.10;62.20;;;;;;5056022;28;20025;-72
2021/07/09 01:00:53;;;;;;;3.65;2.97;;;24.20;62.30;;;;;;5056369;28;20502;-72
2021/07/09 01:03:19;;;;;;;5.38;3.28;;;24.10;62.30;;;;;;5071495;28;20472;-72
2021/07/09 01:05:45;;;;;;;4.03;2.97;;;24.10;62.20;;;;;;5056076;28;20032;-72
2021/07/09 01:08:14;;;;;;;6.45;2.78;;;24.10;62.10;;;;;;5056232;28;20101;-73
2021/07/09 01:10:43;;;;;;;4.55;3.38;;;24.10;62.30;;;;;;5055960;28;20036;-72
2021/07/09 01:13:09;;;;;;;4.43;3.40;;;24.10;62.40;;;;;;5056392;28;20418;-73
2021/07/09 01:15:35;;;;;;;4.53;3.15;;;24.10;62.40;;;;;;5055953;28;20075;-72
2021/07/09 01:18:03;;;;;;;6.90;3.30;;;24.10;62.50;;;;;;5056282;28;20414;-72
2021/07/09 01:20:29;;;;;;;6.63;3.40;;;24.00;62.50;;;;;;5055785;28;20056;-72
2021/07/09 01:22:56;;;;;;;8.38;3.50;;;24.00;62.50;;;;;;5055592;28;20057;-72
2021/07/09 01:25:25;;;;;;;5.93;3.08;;;24.00;62.60;;;;;;5055567;28;20033;-72
2021/07/09 01:27:58;;;;;;;5.22;3.25;;;24.00;62.60;;;;;;5055362;28;20352;-72
2021/07/09 01:30:25;;;;;;;4.75;3.33;;;24.00;62.60;;;;;;5055983;28;20048;-71
2021/07/09 01:32:51;;;;;;;4.95;3.30;;;24.00;62.70;;;;;;5055477;28;20074;-71
2021/07/09 01:35:18;;;;;;;5.28;3.33;;;24.00;62.70;;;;;;5055286;28;20506;-71
2021/07/09 01:38:04;;;;;;;4.13;3.58;;;24.00;62.80;;;;;;5055683;28;20036;-71
2021/07/09 01:40:31;;;;;;;6.65;3.55;;;24.00;62.90;;;;;;5055857;28;20505;-71
2021/07/09 01:42:57;;;;;;;5.30;3.25;;;24.00;63.00;;;;;;5055021;28;20135;-71
2021/07/09 01:45:24;;;;;;;7.47;3.53;;;23.90;63.10;;;;;;5055012;28;20432;-72
2021/07/09 01:47:51;;;;;;;4.18;3.47;;;23.90;63.20;;;;;;5055238;28;20029;-71
2021/07/09 01:50:18;;;;;;;4.22;3.42;;;23.90;63.40;;;;;;5055438;28;20029;-72
2021/07/09 01:52:45;;;;;;;6.05;3.33;;;23.90;63.60;;;;;;5055071;28;20072;-72
2021/07/09 01:55:12;;;;;;;4.25;3.17;;;23.80;63.70;;;;;;5055787;28;20417;-72
2021/07/09 01:57:39;;;;;;;4.85;3.10;;;23.80;63.90;;;;;;5054736;28;20036;-72
2021/07/09 02:00:09;;;;;;;5.93;3.33;;;23.80;64.00;;;;;;5070366;28;20029;-72
2021/07/09 02:02:35;;;;;;;4.85;3.30;;;23.80;64.30;;;;;;5053703;28;20452;-72
2021/07/09 02:05:00;;;;;;;6.13;3.92;;;23.80;64.30;;;;;;5054908;28;20406;-72
2021/07/09 02:07:26;;;;;;;5.22;3.28;;;23.80;64.60;;;;;;5055157;28;20017;-72
2021/07/09 02:09:58;;;;;;;5.88;3.45;;;23.80;64.60;;;;;;5054802;28;20079;-72
2021/07/09 02:12:26;;;;;;;6.10;3.90;;;23.80;65.00;;;;;;5053837;28;20029;-73
2021/07/09 02:14:52;;;;;;;6.18;3.78;;;23.80;65.40;;;;;;5054326;28;20478;-72
2021/07/09 02:17:20;;;;;;;6.05;3.80;;;23.80;65.60;;;;;;5054955;28;20051;-73
2021/07/09 02:19:49;;;;;;;5.82;3.67;;;23.90;65.80;;;;;;5055197;28;20037;-72
2021/07/09 02:22:16;;;;;;;5.75;3.55;;;23.90;65.90;;;;;;5054196;28;20021;-72
2021/07/09 02:24:45;;;;;;;8.35;3.65;;;23.90;65.90;;;;;;5054500;28;20454;-72
2021/07/09 02:27:11;;;;;;;8.40;3.83;;;23.90;65.90;;;;;;5054464;28;20033;-73
2021/07/09 02:29:38;;;;;;;6.78;3.58;;;23.90;65.60;;;;;;5054409;28;20360;-71
2021/07/09 02:32:06;;;;;;;7.80;3.63;;;23.90;65.40;;;;;;5054299;28;20032;-73
2021/07/09 02:34:33;;;;;;;6.03;3.72;;;23.90;65.30;;;;;;5054119;28;20107;-73
2021/07/09 02:36:59;;;;;;;5.05;3.40;;;23.90;65.00;;;;;;5054662;28;20033;-73
2021/07/09 02:39:25;;;;;;;6.72;3.50;;;23.90;64.80;;;;;;5054191;28;20362;-72
2021/07/09 02:41:55;;;;;;;7.35;3.30;;;24.00;64.70;;;;;;5053825;28;20387;-73
2021/07/09 02:44:22;;;;;;;5.30;3.50;;;24.00;64.40;;;;;;5053915;28;20033;-73
2021/07/09 02:46:48;;;;;;;4.82;3.20;;;24.00;64.00;;;;;;5054649;28;20060;-72
2021/07/09 02:49:14;;;;;;;6.25;3.38;;;24.00;63.80;;;;;;5053714;28;20420;-73
2021/07/09 02:51:41;;;;;;;4.40;3.42;;;24.10;63.70;;;;;;5054223;28;20162;-74
2021/07/09 02:54:06;;;;;;;5.38;3.50;;;24.10;63.60;;;;;;5054581;28;20049;-71
2021/07/09 02:56:32;;;;;;;6.03;3.80;;;24.20;63.60;;;;;;5053780;28;20040;-73
2021/07/09 02:58:58;;;;;;;7.43;4.15;;;24.20;63.50;;;;;;5054071;28;20506;-72
2021/07/09 03:01:25;;;;;;;5.20;3.47;;;24.20;63.40;;;;;;5053832;28;20025;-72
2021/07/09 03:03:52;;;;;;;4.53;3.40;;;24.30;63.50;;;;;;5053475;28;20033;-73
2021/07/09 03:06:18;;;;;;;5.72;3.40;;;24.30;63.40;;;;;;5053675;28;20040;-72
2021/07/09 03:08:44;;;;;;;6.63;3.60;;;24.40;63.30;;;;;;5053618;28;20029;-71
2021/07/09 03:11:09;;;;;;;5.57;3.30;;;24.40;63.20;;;;;;5054109;28;20025;-73
2021/07/09 03:13:35;;;;;;;5.40;3.50;;;24.50;63.10;;;;;;5053527;28;20499;-73
2021/07/09 03:16:01;;;;;;;6.57;3.25;;;24.50;62.90;;;;;;5053661;28;20044;-73
2021/07/09 03:18:26;;;;;;;5.55;3.63;;;24.60;62.80;;;;;;5053595;28;20040;-73
2021/07/09 03:20:54;;;;;;;4.25;3.22;;;24.70;62.70;;;;;;5052080;28;20472;-74
2021/07/09 03:23:20;;;;;;;7.00;3.67;;;24.70;62.60;;;;;;5053448;28;20040;-72
2021/07/09 03:25:45;;;;;;;4.85;3.58;;;24.70;62.50;;;;;;5053923;28;20033;-72
2021/07/09 03:28:11;;;;;;;10.82;3.97;;;24.80;62.40;;;;;;5053156;28;20032;-72
2021/07/09 03:30:37;;;;;;;5.97;3.53;;;24.80;62.30;;;;;;5068877;28;20021;-72
2021/07/09 03:33:02;;;;;;;6.07;3.70;;;24.80;62.30;;;;;;5052191;28;20032;-73
2021/07/09 03:35:28;;;;;;;6.50;3.38;;;24.90;62.40;;;;;;5054043;28;20266;-72
2021/07/09 03:37:54;;;;;;;4.78;3.40;;;24.90;62.30;;;;;;5054113;28;20463;-73
2021/07/09 03:40:20;;;;;;;5.35;3.13;;;24.90;62.20;;;;;;5068808;28;20036;-73
2021/07/09 03:42:45;;;;;;;6.15;3.40;;;25.00;62.10;;;;;;5053360;28;20025;-72
2021/07/09 03:45:11;;;;;;;4.88;3.58;;;25.00;61.90;;;;;;5053596;28;20033;-73
2021/07/09 03:47:37;;;;;;;8.68;3.88;;;25.10;61.90;;;;;;5053650;28;20031;-72
2021/07/09 03:50:04;;;;;;;7.35;3.33;;;25.10;61.70;;;;;;5053257;28;20027;-72
2021/07/09 03:52:30;;;;;;;7.88;3.58;;;25.20;61.80;;;;;;5053132;28;20049;-73
2021/07/09 03:54:57;;;;;;;4.40;3.40;;;25.20;61.80;;;;;;5053181;28;20025;-72
2021/07/09 03:57:23;;;;;;;7.45;4.15;;;25.30;61.90;;;;;;5053485;28;20025;-73
2021/07/09 03:59:48;;;;;;;8.15;3.45;;;25.30;61.90;;;;;;5053469;28;20071;-72
2021/07/09 04:02:14;;;;;;;7.28;3.67;;;25.30;61.90;;;;;;5053257;28;20474;-73
2021/07/09 04:04:40;;;;;;;4.95;3.20;;;25.40;61.90;;;;;;5053346;28;20025;-73
2021/07/09 04:07:06;;;;;;;5.32;3.55;;;25.40;61.90;;;;;;5053126;28;20036;-72
2021/07/09 04:09:32;;;;;;;8.18;3.85;;;25.50;61.90;;;;;;5053127;28;20371;-73
2021/07/09 04:11:58;;;;;;;11.60;3.75;;;25.50;61.80;;;;;;5068607;28;20025;-72
2021/07/09 04:14:25;;;;;;;5.78;3.60;;;25.60;61.80;;;;;;5053521;28;20029;-72
2021/07/09 04:16:50;;;;;;;6.63;3.70;;;25.60;61.60;;;;;;5052754;28;20204;-72
2021/07/09 04:19:16;;;;;;;7.25;3.80;;;25.60;61.50;;;;;;5051657;28;20112;-73
2021/07/09 04:21:42;;;;;;;6.60;3.60;;;25.70;61.40;;;;;;5053102;28;20025;-73
2021/07/09 04:24:08;;;;;;;8.10;3.58;;;25.70;61.20;;;;;;5053513;28;20028;-72
2021/07/09 04:26:34;;;;;;;5.18;3.78;;;25.80;61.10;;;;;;5056247;28;20383;-73
2021/07/09 04:29:00;;;;;;;5.53;3.40;;;25.80;61.10;;;;;;5057241;28;20371;-72
2021/07/09 04:31:26;;;;;;;6.13;3.42;;;25.90;61.00;;;;;;5056215;28;20031;-72
2021/07/09 04:33:53;;;;;;;5.70;3.40;;;25.90;60.90;;;;;;5056707;28;20105;-72
2021/07/09 04:36:19;;;;;;;5.28;3.65;;;26.00;61.00;;;;;;5056188;28;20505;-73
2021/07/09 04:38:45;;;;;;;9.43;3.53;;;26.00;60.80;;;;;;5056640;28;20025;-72
2021/07/09 04:41:10;;;;;;;21.35;4.35;;;26.10;60.70;;;;;;5057284;28;20116;-72
2021/07/09 04:43:38;;;;;;;8.27;3.83;;;26.20;60.50;;;;;;5056768;28;20520;-72
2021/07/09 04:46:05;;;;;;;13.77;4.22;;;26.20;60.30;;;;;;5056981;28;20021;-72
2021/07/09 04:48:31;;;;;;;12.43;3.95;;;26.30;60.10;;;;;;5056333;28;20040;-72
2021/07/09 04:50:57;;;;;;;8.68;3.40;;;26.40;59.90;;;;;;5071803;28;20483;-73
2021/07/09 04:53:23;;;;;;;6.00;3.30;;;26.40;59.70;;;;;;5056666;28;20181;-72
2021/07/09 04:55:49;;;;;;;6.13;3.40;;;26.40;59.60;;;;;;5056370;28;20040;-72
2021/07/09 04:58:14;;;;;;;5.65;3.72;;;26.50;59.50;;;;;;5056687;28;20040;-73
2021/07/09 05:00:40;;;;;;;10.73;3.60;;;26.50;59.40;;;;;;5056097;28;20375;-72
2021/07/09 05:03:06;;;;;;;8.93;4.20;;;26.50;59.20;;;;;;5055878;28;20399;-73
2021/07/09 05:05:32;;;;;;;6.10;3.63;;;26.60;59.00;;;;;;5055840;28;20040;-73
2021/07/09 05:07:57;;;;;;;7.72;3.78;;;26.70;58.90;;;;;;5055637;28;20029;-72
2021/07/09 05:10:23;;;;;;;9.75;3.70;;;26.70;58.70;;;;;;5055604;28;20048;-72
2021/07/09 05:12:49;;;;;;;5.80;3.60;;;26.80;58.60;;;;;;5055985;28;20353;-73
2021/07/09 05:15:15;;;;;;;7.00;3.63;;;26.80;58.40;;;;;;5055706;28;20060;-75
2021/07/09 05:17:41;;;;;;;6.32;3.60;;;26.80;59.00;;;;;;5055643;28;20024;-72
2021/07/09 05:20:07;;;;;;;9.38;3.88;;;26.90;58.40;;;;;;5055594;28;20377;-72
2021/07/09 05:22:33;;;;;;;18.88;4.75;;;26.90;58.40;;;;;;5056051;28;20029;-71
2021/07/09 05:24:59;;;;;;;9.63;3.53;;;27.00;58.30;;;;;;5055907;28;20032;-72
2021/07/09 05:27:28;;;;;;;7.35;3.58;;;27.00;58.10;;;;;;5055458;28;20036;-72
2021/07/09 05:29:54;;;;;;;5.25;3.90;;;27.10;58.10;;;;;;5055439;28;20028;-73
2021/07/09 05:32:25;;;;;;;7.30;3.58;;;27.20;58.10;;;;;;5055705;28;20047;-72
2021/07/09 05:34:52;;;;;;;6.45;3.70;;;27.20;58.00;;;;;;5055231;28;20127;-72
2021/07/09 05:37:19;;;;;;;6.80;3.72;;;27.30;58.10;;;;;;5054782;28;20487;-73
2021/07/09 05:39:45;;;;;;;5.35;3.88;;;27.30;57.90;;;;;;5054829;28;20029;-73
2021/07/09 05:42:12;;;;;;;6.68;3.60;;;27.40;57.80;;;;;;5054886;28;20029;-75
2021/07/09 05:44:38;;;;;;;5.90;3.72;;;27.40;57.60;;;;;;5055420;28;20033;-73
2021/07/09 05:47:04;;;;;;;8.52;3.83;;;27.40;57.40;;;;;;5054982;28;20483;-72
2021/07/09 05:49:30;;;;;;;4.97;3.55;;;27.60;57.30;;;;;;5055195;28;20040;-73
2021/07/09 05:51:56;;;;;;;3.55;3.17;;;27.60;57.00;;;;;;5055191;28;20029;-73
2021/07/09 05:54:22;;;;;;;6.55;3.80;;;27.70;56.90;;;;;;5056241;28;20044;-73
2021/07/09 05:56:47;;;;;;;7.18;3.90;;;27.70;56.40;;;;;;5055205;28;20078;-72
2021/07/09 05:59:13;;;;;;;8.63;3.85;;;27.80;56.10;;;;;;5055285;28;20033;-73
2021/07/09 06:01:39;;;;;;;6.70;3.38;;;27.90;56.00;;;;;;5055077;28;20025;-73
2021/07/09 06:04:05;;;;;;;5.97;3.58;;;27.90;55.90;;;;;;5055500;28;20455;-73
2021/07/09 06:06:31;;;;;;;5.85;3.25;;;28.00;55.80;;;;;;5055144;28;20083;-73
2021/07/09 06:08:57;;;;;;;5.68;4.38;;;28.00;55.60;;;;;;5055149;28;20071;-73
2021/07/09 06:11:25;;;;;;;8.88;3.60;;;28.10;55.60;;;;;;5054970;28;20021;-74
2021/07/09 06:13:52;;;;;;;5.65;3.60;;;28.10;55.50;;;;;;5054361;28;20044;-73
2021/07/09 06:16:17;;;;;;;7.32;4.18;;;28.10;55.40;;;;;;5054744;28;20079;-76
2021/07/09 06:18:43;;;;;;;7.47;3.65;;;28.20;55.40;;;;;;5054370;28;20028;-72
2021/07/09 06:21:09;;;;;;;9.73;3.75;;;28.20;55.10;;;;;;5054659;28;20096;-72
2021/07/09 06:23:35;;;;;;;7.00;3.80;;;28.30;54.50;;;;;;5054785;28;20070;-73
2021/07/09 06:26:00;;;;;;;6.70;3.72;;;28.40;54.30;;;;;;5054339;28;20459;-73
2021/07/09 06:28:26;;;;;;;6.72;3.70;;;28.40;54.10;;;;;;5053444;28;20029;-73
2021/07/09 06:30:52;;;;;;;5.63;3.70;;;28.50;53.90;;;;;;5054195;28;20025;-73
2021/07/09 06:33:18;;;;;;;8.98;3.38;;;28.50;54.50;;;;;;5054441;28;20021;-79
2021/07/09 06:35:44;;;;;;;8.27;3.67;;;28.50;53.40;;;;;;5054670;28;20037;-73
2021/07/09 06:38:10;;;;;;;8.13;3.55;;;28.60;53.30;;;;;;5054366;28;20029;-73
2021/07/09 06:40:36;;;;;;;5.25;3.70;;;28.60;53.20;;;;;;5054221;28;20104;-72
2021/07/09 06:43:02;;;;;;;6.38;3.70;;;28.70;53.10;;;;;;5053047;28;20107;-74
2021/07/09 06:45:28;;;;;;;5.22;3.65;;;28.70;53.00;;;;;;5054348;28;20025;-73
2021/07/09 06:47:54;;;;;;;13.95;4.10;;;28.80;52.40;;;;;;5054099;28;20104;-74
2021/07/09 06:50:20;;;;;;;4.43;3.53;;;28.90;52.20;;;;;;5054251;28;20367;-73
2021/07/09 06:52:46;;;;;;;5.80;3.47;;;28.80;51.60;;;;;;5053053;28;20071;-72
2021/07/09 06:55:12;;;;;;;7.32;3.40;;;28.90;51.50;;;;;;5054193;28;20443;-73
2021/07/09 06:57:38;;;;;;;7.80;4.38;;;28.90;51.20;;;;;;5054285;28;20056;-73
2021/07/09 07:00:07;;;;;;;6.80;3.13;;;28.90;50.90;;;;;;5054202;28;20104;-73
2021/07/09 07:02:33;;;;;;;5.75;3.72;;;29.00;50.60;;;;;;5054268;28;20025;-72
2021/07/09 07:05:02;;;;;;;6.35;3.83;;;29.00;50.60;;;;;;5053517;28;20347;-72
2021/07/09 07:07:28;;;;;;;10.88;4.07;;;29.10;50.50;;;;;;5054177;28;20021;-72
2021/07/09 07:09:54;;;;;;;5.40;3.55;;;29.10;50.50;;;;;;5053278;28;20082;-73
2021/07/09 07:12:19;;;;;;;5.63;4.00;;;29.20;50.30;;;;;;5054366;28;20036;-73
2021/07/09 07:14:45;;;;;;;6.25;3.65;;;29.20;50.20;;;;;;5054132;28;20027;-75
2021/07/09 07:17:11;;;;;;;7.53;4.13;;;29.30;50.20;;;;;;5053582;28;20036;-74
2021/07/09 07:19:37;;;;;;;7.53;4.47;;;29.40;50.20;;;;;;5054000;28;20336;-74
2021/07/09 07:22:03;;;;;;;8.85;4.10;;;29.40;50.10;;;;;;5053871;28;20459;-73
2021/07/09 07:24:29;;;;;;;8.73;4.47;;;29.50;50.10;;;;;;5053953;28;20459;-73
2021/07/09 07:26:57;;;;;;;5.55;4.68;;;29.60;50.10;;;;;;5053319;28;20530;-73
2021/07/09 07:29:23;;;;;;;6.32;4.53;;;29.60;50.10;;;;;;5053111;28;20451;-73
2021/07/09 07:31:49;;;;;;;7.35;4.35;;;29.70;50.10;;;;;;5053022;28;20087;-74
2021/07/09 07:34:15;;;;;;;7.57;4.85;;;29.70;49.90;;;;;;5053565;28;20357;-74
2021/07/09 07:36:41;;;;;;;10.70;3.95;;;29.80;49.90;;;;;;5053025;28;20115;-74
2021/07/09 07:39:07;;;;;;;4.32;3.90;;;29.80;49.80;;;;;;5068225;28;20029;-72
2021/07/09 07:41:33;;;;;;;7.88;4.20;;;29.90;49.80;;;;;;5053522;28;20360;-72
2021/07/09 07:43:59;;;;;;;5.20;4.28;;;29.90;49.70;;;;;;5052596;28;20032;-73
2021/07/09 07:46:27;;;;;;;8.27;4.35;;;30.00;49.80;;;;;;5053342;28;20390;-73
2021/07/09 07:48:53;;;;;;;5.60;3.72;;;30.00;50.00;;;;;;5053163;28;20036;-74
2021/07/09 07:51:18;;;;;;;7.65;4.53;;;30.10;49.90;;;;;;5053153;28;20021;-74
2021/07/09 07:53:44;;;;;;;9.50;4.40;;;30.10;49.90;;;;;;5053536;28;20041;-73
2021/07/09 07:56:10;;;;;;;6.15;4.00;;;30.20;49.90;;;;;;5053553;28;20108;-73
2021/07/09 07:58:38;;;;;;;7.30;4.32;;;30.30;49.60;;;;;;5052751;28;20163;-73
2021/07/09 08:01:05;;;;;;;5.65;4.18;;;30.40;49.20;;;;;;5054328;28;20116;-73
2021/07/09 08:03:31;;;;;;;5.93;3.70;;;30.40;49.10;;;;;;5057300;28;20021;-74
2021/07/09 08:05:57;;;;;;;9.02;4.20;;;30.60;49.10;;;;;;5057057;28;20040;-72
2021/07/09 08:08:23;;;;;;;7.68;4.05;;;30.60;48.90;;;;;;5056945;28;20075;-73
2021/07/09 08:10:49;;;;;;;4.82;3.83;;;30.70;48.70;;;;;;5057226;28;20478;-73
2021/07/09 08:13:15;;;;;;;7.68;4.05;;;30.80;48.40;;;;;;5057481;28;20025;-73
2021/07/09 08:15:40;;;;;;;9.68;4.63;;;30.90;48.50;;;;;;5057062;28;20041;-74
2021/07/09 08:18:06;;;;;;;7.68;4.32;;;31.00;48.20;;;;;;5056041;28;20024;-73
2021/07/09 08:20:34;;;;;;;8.18;3.95;;;31.10;48.30;;;;;;5056877;28;20032;-73
2021/07/09 08:23:00;;;;;;;6.38;4.28;;;31.20;48.50;;;;;;5057358;28;20494;-73
2021/07/09 08:25:26;;;;;;;8.27;4.38;;;31.30;48.40;;;;;;5057094;28;20040;-74
2021/07/09 08:27:52;;;;;;;5.65;4.30;;;31.50;47.90;;;;;;5056465;28;20383;-73
2021/07/09 08:30:18;;;;;;;5.43;4.10;;;31.60;47.80;;;;;;5056198;28;20066;-73
2021/07/09 08:32:44;;;;;;;9.52;4.45;;;31.70;47.70;;;;;;5056936;28;20171;-73
2021/07/09 08:35:10;;;;;;;6.78;4.15;;;31.90;47.40;;;;;;5056554;28;20163;-73
2021/07/09 08:37:35;;;;;;;7.25;4.00;;;32.00;46.90;;;;;;5055724;28;20489;-72
2021/07/09 08:40:02;;;;;;;7.53;4.38;;;32.10;46.20;;;;;;5056162;28;20118;-72
2021/07/09 08:42:27;;;;;;;5.38;3.75;;;32.30;46.00;;;;;;5056560;28;20021;-73
2021/07/09 08:44:53;;;;;;;3.97;3.35;;;32.50;45.80;;;;;;5056183;28;20025;-72
2021/07/09 08:47:19;;;;;;;8.30;4.22;;;32.60;45.30;;;;;;5054549;28;20064;-72
2021/07/09 08:49:48;;;;;;;8.35;4.25;;;32.80;44.80;;;;;;5056834;28;20028;-71
2021/07/09 08:52:14;;;;;;;6.03;3.50;;;32.90;44.40;;;;;;5056314;28;20033;-74
2021/07/09 08:54:40;;;;;;;4.57;3.40;;;33.10;44.40;;;;;;5056321;28;20029;-72
2021/07/09 08:57:05;;;;;;;5.65;3.70;;;33.20;44.20;;;;;;5055861;28;20034;-74
2021/07/09 08:59:31;;;;;;;10.93;4.40;;;33.40;44.00;;;;;;5056876;28;20025;-73
2021/07/09 09:02:03;;;;;;;9.50;3.80;;;33.60;43.70;;;;;;5056446;28;20075;-72
2021/07/09 09:04:34;;;;;;;6.20;3.65;;;33.90;43.60;;;;;;5070803;28;20032;-73
2021/07/09 09:07:09;;;;;;;7.30;3.75;;;34.10;43.30;;;;;;5056093;28;20036;-72
2021/07/09 09:09:37;;;;;;;5.55;3.72;;;34.40;43.20;;;;;;5055926;28;20386;-74
2021/07/09 09:12:12;;;;;;;5.05;3.90;;;34.50;42.60;;;;;;5055694;28;20017;-73
2021/07/09 09:14:49;;;;;;;12.65;4.40;;;34.70;41.70;;;;;;5055900;28;20039;-72
2021/07/09 09:17:28;;;;;;;5.85;3.90;;;34.90;41.50;;;;;;5055689;28;20478;-74
2021/07/09 09:20:13;;;;;;;9.43;4.30;;;35.10;41.20;;;;;;5071884;28;20471;-73
2021/07/09 09:22:48;;;;;;;4.35;3.90;;;35.30;40.50;;;;;;5055981;28;20029;-71
2021/07/09 09:25:19;;;;;;;8.32;4.35;;;35.50;40.20;;;;;;5054319;28;20025;-73
2021/07/09 09:28:11;;;;;;;11.23;4.15;;;35.70;40.00;;;;;;5056028;28;20040;-73
2021/07/09 09:30:38;;;;;;;6.57;3.80;;;35.90;39.80;;;;;;5055808;28;20025;-76
2021/07/09 09:33:06;;;;;;;4.95;4.18;;;36.20;39.80;;;;;;5055189;28;20028;-73
2021/07/09 09:35:43;;;;;;;7.43;3.97;;;36.40;39.70;;;;;;5055706;28;20036;-73
2021/07/09 09:38:16;;;;;;;6.05;4.57;;;36.70;39.60;;;;;;5055102;28;20025;-72
2021/07/09 09:40:44;;;;;;;6.88;3.88;;;36.90;39.30;;;;;;5055908;28;20418;-72
2021/07/09 09:43:12;;;;;;;4.65;3.88;;;37.10;38.90;;;;;;5055048;28;20059;-72
2021/07/09 09:45:39;;;;;;;5.63;3.85;;;37.40;38.40;;;;;;5053826;28;20390;-73
2021/07/09 09:48:09;;;;;;;8.25;4.32;;;37.60;37.90;;;;;;5054713;28;20069;-73
2021/07/09 09:50:50;;;;;;;12.10;4.40;;;37.70;37.40;;;;;;5054473;28;20017;-73
2021/07/09 09:53:30;;;;;;;5.30;3.63;;;38.00;37.30;;;;;;5055074;28;20045;-73
2021/07/09 09:56:05;;;;;;;4.40;3.55;;;38.20;37.10;;;;;;5055856;28;20032;-74
2021/07/09 09:58:31;;;;;;;4.55;3.50;;;38.40;36.90;;;;;;5055629;28;20097;-73
2021/07/09 10:00:56;;;;;;;5.43;3.22;;;38.60;36.70;;;;;;5054899;28;20029;-73
2021/07/09 10:03:22;;;;;;;7.38;3.70;;;38.90;36.70;;;;;;5054578;28;20017;-75
2021/07/09 10:05:51;;;;;;;5.60;3.58;;;39.20;36.30;;;;;;5053924;28;20144;-73
2021/07/09 10:08:24;;;;;;;13.15;4.00;;;39.50;36.00;;;;;;5055163;28;20024;-73
2021/07/09 10:10:49;;;;;;;;;;;39.70;35.90;;;;;;5055406;28;20021;-74
2021/07/09 10:13:21;;;;;;;5.47;3.45;;;39.80;36.30;;;;;;5054893;28;19907;-72
2021/07/09 10:15:48;;;;;;;9.32;4.15;;;40.00;35.40;;;;;;5054079;28;20068;-73
2021/07/09 10:18:19;;;;;;;6.97;4.03;;;40.20;34.60;;;;;;5054342;28;20037;-74
2021/07/09 10:20:46;;;;;;;8.85;4.30;;;40.30;34.50;;;;;;5054242;28;20472;-73
2021/07/09 10:23:19;;;;;;;5.50;4.15;;;40.30;34.50;;;;;;5053787;28;20112;-73
2021/07/09 10:25:48;;;;;;;7.93;4.43;;;40.40;34.30;;;;;;5054192;28;20083;-74
2021/07/09 10:28:18;;;;;;;5.55;3.75;;;40.60;34.30;;;;;;5054119;28;20029;-72
2021/07/09 10:30:43;;;;;;;5.18;3.90;;;40.80;34.00;;;;;;5055139;28;20028;-74
2021/07/09 10:33:32;;;;;;;4.25;3.85;;;41.00;33.90;;;;;;5054438;28;20383;-74
2021/07/09 10:35:59;;;;;;;8.55;4.40;;;41.10;33.80;;;;;;5054098;28;20495;-75
2021/07/09 10:38:38;;;;;;;7.88;4.65;;;41.30;33.20;;;;;;5054240;28;20108;-74
2021/07/09 10:41:16;;;;;;;5.10;4.05;;;41.40;33.30;;;;;;5054550;28;20081;-73
2021/07/09 10:44:02;;;;;;;5.32;4.40;;;41.70;33.20;;;;;;5054101;28;20021;-74
2021/07/09 10:46:34;;;;;;;6.78;3.95;;;41.80;32.80;;;;;;5053934;28;20051;-73
2021/07/09 10:49:00;;;;;;;9.93;4.30;;;41.90;32.80;;;;;;5054080;28;20061;-74
2021/07/09 10:51:49;;;;;;;7.20;4.65;;;42.00;33.00;;;;;;5053824;28;20399;-74
2021/07/09 10:54:30;;;;;;;8.30;4.72;;;42.20;32.90;;;;;;5054393;28;20073;-73
2021/07/09 10:57:21;;;;;;;8.73;4.20;;;42.40;32.80;;;;;;5053821;28;20437;-74
2021/07/09 11:00:24;;;;;;;7.63;3.72;;;42.50;32.70;;;;;;5053821;28;20031;-74
2021/07/09 11:03:00;;;;;;;5.32;4.00;;;42.70;32.50;;;;;;5053769;28;20029;-76
2021/07/09 11:05:50;;;;;;;8.00;4.47;;;42.80;32.10;;;;;;5054139;28;20506;-73
2021/07/09 11:08:33;;;;;;;5.15;4.05;;;43.00;32.10;;;;;;5053794;28;20032;-72
2021/07/09 11:11:02;;;;;;;4.45;3.45;;;43.10;32.10;;;;;;5053340;28;20478;-74
2021/07/09 11:13:44;;;;;;;5.82;4.22;;;43.20;31.80;;;;;;5053497;28;20037;-73
2021/07/09 11:16:27;;;;;;;4.60;4.20;;;43.10;31.80;;;;;;5052652;28;20048;-74
2021/07/09 11:19:07;;;;;;;10.07;4.35;;;43.00;31.90;;;;;;5069519;28;20363;-74
2021/07/09 11:21:33;;;;;;;9.73;4.32;;;43.10;32.00;;;;;;5053475;28;20493;-73
2021/07/09 11:24:08;;;;;;;5.13;4.05;;;43.30;32.40;;;;;;5053444;28;20040;-72
2021/07/09 11:26:40;;;;;;;9.52;4.50;;;43.50;32.20;;;;;;5053258;28;20124;-73
2021/07/09 11:29:22;;;;;;;5.22;4.07;;;43.70;32.10;;;;;;5053270;28;20027;-73
2021/07/09 11:31:49;;;;;;;5.43;4.35;;;44.00;31.80;;;;;;5053235;28;20028;-74
2021/07/09 11:34:16;;;;;;;6.95;3.90;;;44.20;31.80;;;;;;5053010;28;20029;-75
2021/07/09 11:36:46;;;;;;;19.50;4.90;;;44.30;31.60;;;;;;5052989;28;20536;-76
2021/07/09 11:39:15;;;;;;;5.20;3.95;;;44.50;31.60;;;;;;5068811;28;20356;-72
2021/07/09 11:41:58;;;;;;;9.90;4.30;;;44.70;31.80;;;;;;5053326;28;20048;-75
2021/07/09 11:44:45;;;;;;;8.82;4.63;;;44.90;31.60;;;;;;5053269;28;20025;-74
2021/07/09 11:47:17;;;;;;;5.03;3.90;;;45.10;31.60;;;;;;5053900;28;20033;-76
2021/07/09 11:49:54;;;;;;;7.20;4.28;;;45.10;31.30;;;;;;5053338;28;20100;-74
2021/07/09 11:52:22;;;;;;;7.13;3.88;;;45.30;31.20;;;;;;5052918;28;20160;-74
2021/07/09 11:54:48;;;;;;;6.57;4.78;;;45.40;31.20;;;;;;5053093;28;20033;-73
2021/07/09 11:57:26;;;;;;;8.65;4.25;;;45.60;31.10;;;;;;5052925;28;20037;-76
2021/07/09 11:59:53;;;;;;;18.30;4.47;;;45.80;31.20;;;;;;5053691;28;20025;-74
2021/07/09 12:02:20;;;;;;;6.95;4.65;;;45.90;31.10;;;;;;5053641;28;20017;-74
2021/07/09 12:04:49;;;;;;;4.68;4.25;;;46.00;31.00;;;;;;5053307;28;20037;-74
2021/07/09 12:07:25;;;;;;;4.22;3.83;;;46.20;30.90;;;;;;5053050;28;20417;-76
2021/07/09 12:09:55;;;;;;;4.43;3.95;;;46.40;30.70;;;;;;5053104;28;20032;-73
2021/07/09 12:12:23;;;;;;;8.48;4.22;;;46.60;30.60;;;;;;5052526;28;20060;-75
2021/07/09 12:14:57;;;;;;;6.22;4.40;;;46.80;30.70;;;;;;5053399;28;20024;-77
2021/07/09 12:17:25;;;;;;;5.10;3.90;;;47.00;30.40;;;;;;5051846;28;20041;-76
2021/07/09 12:20:00;;;;;;;7.88;4.28;;;47.00;30.40;;;;;;5053755;28;20079;-74
2021/07/09 12:22:35;;;;;;;4.22;3.83;;;47.20;30.30;;;;;;5052687;28;20033;-73
2021/07/09 12:25:14;;;;;;;7.25;3.90;;;47.40;30.00;;;;;;5053189;28;20107;-76
2021/07/09 12:27:41;;;;;;;9.43;4.15;;;47.40;30.00;;;;;;5053158;28;20083;-73
2021/07/09 12:30:16;;;;;;;6.93;4.65;;;47.60;30.00;;;;;;5052662;28;20459;-77
2021/07/09 12:32:50;;;;;;;9.95;4.25;;;47.80;29.90;;;;;;5052812;28;20037;-75
2021/07/09 12:35:18;;;;;;;7.25;4.45;;;47.90;29.90;;;;;;5052732;28;20029;-73
2021/07/09 12:38:04;;;;;;;6.78;4.32;;;48.00;30.00;;;;;;5051576;28;20057;-73
2021/07/09 12:40:45;;;;;;;4.90;4.30;;;48.20;29.90;;;;;;5053031;28;20052;-73
2021/07/09 12:43:18;;;;;;;4.20;3.80;;;48.30;29.80;;;;;;5052836;28;20104;-73
2021/07/09 12:45:59;;;;;;;8.13;4.03;;;48.40;29.60;;;;;;5052925;28;20029;-73
2021/07/09 12:48:36;;;;;;;5.07;3.83;;;48.50;29.60;;;;;;5056478;28;20013;-74
2021/07/09 12:51:21;;;;;;;7.55;4.25;;;48.70;29.60;;;;;;5056183;28;20269;-73
2021/07/09 12:53:53;;;;;;;4.57;3.92;;;48.90;29.70;;;;;;5055905;28;20049;-74